EWG5ZW GCTS-EDDH
Flight info
| Callsign | EWG5ZW |
|---|---|
| Flight time | 4h 29m |
| Altitude | 34000 |
| Route | BIMBO DCT GALPA DCT MARUM DCT ASMAR DCT DEMOS/N0450F360 DCT LOTEE DCT AZFIC UN741 ERIGA DCT GODIX DCT PODEM UN873 BAZOS DCT BELDI DCT VEKIN DCT ADUTO N873 VICOT/N0448F370 DCT PABCO M105 RIBSO RIBSO7A |
| Aircraft | A320/M-SDE3FGHIRWY/LB1 |
Departure
| Time | 2026-04-26 09:14 |
|---|---|
| Airport | Tenerife Sur Airport (GCTS) |
Arrival
| Time | 2026-04-26 13:44 |
|---|---|
| Airport | Hamburg Helmut Schmidt Airport (EDDH) |
| Time | Latitude | Longitude | Altitude | Speed | Heading |
|---|---|---|---|---|---|
| 2026-04-26 08:45 | 28.04648 | -16.57894 | 222 ft | 0 kts | 9° |
| 2026-04-26 09:06 | 28.04640 | -16.57895 | 222 ft | 4 kts | 5° |
| 2026-04-26 09:07 | 28.04614 | -16.57894 | 222 ft | 4 kts | 338° |
| 2026-04-26 09:07 | 28.04592 | -16.57877 | 222 ft | 4 kts | 303° |
| 2026-04-26 09:07 | 28.04583 | -16.57850 | 223 ft | 4 kts | 273° |
| 2026-04-26 09:07 | 28.04585 | -16.57826 | 219 ft | 1 kts | 248° |
| 2026-04-26 09:10 | 28.04583 | -16.57831 | 218 ft | 2 kts | 248° |
| 2026-04-26 09:10 | 28.04574 | -16.57858 | 220 ft | 6 kts | 248° |
| 2026-04-26 09:11 | 28.04554 | -16.57913 | 218 ft | 9 kts | 247° |
| 2026-04-26 09:11 | 28.04488 | -16.57937 | 212 ft | 15 kts | 162° |
| 2026-04-26 09:11 | 28.04393 | -16.57968 | 203 ft | 17 kts | 250° |
| 2026-04-26 09:11 | 28.04348 | -16.58099 | 203 ft | 18 kts | 242° |
| 2026-04-26 09:12 | 28.04292 | -16.58232 | 203 ft | 19 kts | 247° |
| 2026-04-26 09:12 | 28.04242 | -16.58373 | 206 ft | 20 kts | 248° |
| 2026-04-26 09:12 | 28.04194 | -16.58516 | 206 ft | 19 kts | 255° |
| 2026-04-26 09:12 | 28.04153 | -16.58662 | 205 ft | 20 kts | 250° |
| 2026-04-26 09:13 | 28.04096 | -16.58818 | 207 ft | 22 kts | 248° |
| 2026-04-26 09:13 | 28.04046 | -16.58959 | 200 ft | 16 kts | 242° |
| 2026-04-26 09:13 | 28.03949 | -16.58952 | 204 ft | 19 kts | 127° |
| 2026-04-26 09:13 | 28.03915 | -16.58778 | 200 ft | 28 kts | 73° |
| 2026-04-26 09:14 | 28.04044 | -16.58407 | 207 ft | 82 kts | 68° |
| 2026-04-26 09:14 | 28.04327 | -16.57602 | 207 ft | 135 kts | 68° |
| 2026-04-26 09:14 | 28.04720 | -16.56480 | 402 ft | 159 kts | 70° |
| 2026-04-26 09:14 | 28.05116 | -16.55327 | 1128 ft | 158 kts | 68° |
| 2026-04-26 09:15 | 28.05517 | -16.54164 | 1772 ft | 160 kts | 66° |
| 2026-04-26 09:15 | 28.05945 | -16.52938 | 2149 ft | 177 kts | 66° |
| 2026-04-26 09:15 | 28.06428 | -16.51562 | 2333 ft | 200 kts | 66° |
| 2026-04-26 09:15 | 28.06964 | -16.50031 | 2549 ft | 220 kts | 66° |
| 2026-04-26 09:16 | 28.07557 | -16.48335 | 2807 ft | 243 kts | 66° |
| 2026-04-26 09:16 | 28.08198 | -16.46494 | 3350 ft | 255 kts | 66° |
| 2026-04-26 09:16 | 28.08851 | -16.44605 | 4077 ft | 260 kts | 67° |
| 2026-04-26 09:16 | 28.09489 | -16.42676 | 4851 ft | 264 kts | 68° |
| 2026-04-26 09:17 | 28.10122 | -16.40710 | 5600 ft | 267 kts | 68° |
| 2026-04-26 09:17 | 28.10759 | -16.38718 | 6355 ft | 271 kts | 68° |
| 2026-04-26 09:17 | 28.11406 | -16.36699 | 7028 ft | 275 kts | 68° |
| 2026-04-26 09:17 | 28.12133 | -16.34684 | 7684 ft | 278 kts | 58° |
| 2026-04-26 09:18 | 28.13382 | -16.33063 | 8314 ft | 279 kts | 34° |
| 2026-04-26 09:18 | 28.15165 | -16.32143 | 8970 ft | 282 kts | 9° |
| 2026-04-26 09:18 | 28.17098 | -16.31918 | 9608 ft | 285 kts | 4° |
| 2026-04-26 09:18 | 28.19093 | -16.31757 | 10247 ft | 292 kts | 3° |
| 2026-04-26 09:19 | 28.21197 | -16.31592 | 10408 ft | 315 kts | 3° |
| 2026-04-26 09:19 | 28.23454 | -16.31411 | 10536 ft | 336 kts | 4° |
| 2026-04-26 09:19 | 28.25854 | -16.31212 | 10652 ft | 355 kts | 4° |
| 2026-04-26 09:19 | 28.28376 | -16.30998 | 10873 ft | 369 kts | 4° |
| 2026-04-26 09:20 | 28.30956 | -16.30774 | 11347 ft | 375 kts | 4° |
| 2026-04-26 09:20 | 28.33575 | -16.30546 | 11888 ft | 379 kts | 4° |
| 2026-04-26 09:20 | 28.36211 | -16.30319 | 12435 ft | 382 kts | 4° |
| 2026-04-26 09:20 | 28.38877 | -16.30090 | 12977 ft | 385 kts | 4° |
| 2026-04-26 09:21 | 28.41562 | -16.29857 | 13527 ft | 389 kts | 4° |
| 2026-04-26 09:21 | 28.44272 | -16.29622 | 14040 ft | 393 kts | 4° |
| 2026-04-26 09:21 | 28.47006 | -16.29386 | 14525 ft | 396 kts | 4° |
| 2026-04-26 09:21 | 28.49760 | -16.29150 | 15023 ft | 398 kts | 4° |
| 2026-04-26 09:22 | 28.52534 | -16.28913 | 15529 ft | 401 kts | 4° |
| 2026-04-26 09:22 | 28.55326 | -16.28674 | 16032 ft | 404 kts | 4° |
| 2026-04-26 09:22 | 28.58136 | -16.28433 | 16544 ft | 407 kts | 4° |
| 2026-04-26 09:22 | 28.60969 | -16.28190 | 17053 ft | 409 kts | 4° |
| 2026-04-26 09:23 | 28.63820 | -16.27943 | 17573 ft | 412 kts | 4° |
| 2026-04-26 09:23 | 28.66689 | -16.27697 | 18066 ft | 415 kts | 4° |
| 2026-04-26 09:23 | 28.69583 | -16.27449 | 18537 ft | 418 kts | 4° |
| 2026-04-26 09:23 | 28.72496 | -16.27199 | 18946 ft | 422 kts | 3° |
| 2026-04-26 09:24 | 28.75400 | -16.26948 | 19341 ft | 425 kts | 3° |
| 2026-04-26 09:24 | 28.78402 | -16.26690 | 19740 ft | 429 kts | 3° |
| 2026-04-26 09:24 | 28.81350 | -16.26436 | 20124 ft | 432 kts | 3° |
| 2026-04-26 09:24 | 28.84358 | -16.26174 | 20507 ft | 435 kts | 3° |
| 2026-04-26 09:25 | 28.87388 | -16.25913 | 20870 ft | 438 kts | 3° |
| 2026-04-26 09:25 | 28.90442 | -16.25649 | 21225 ft | 441 kts | 3° |
| 2026-04-26 09:25 | 28.93506 | -16.25385 | 21566 ft | 444 kts | 3° |
| 2026-04-26 09:25 | 28.96595 | -16.25116 | 21910 ft | 446 kts | 3° |
| 2026-04-26 09:26 | 28.99702 | -16.24843 | 22236 ft | 449 kts | 3° |
| 2026-04-26 09:26 | 29.02824 | -16.24569 | 22560 ft | 451 kts | 3° |
| 2026-04-26 09:26 | 29.05961 | -16.24296 | 22883 ft | 453 kts | 2° |
| 2026-04-26 09:26 | 29.09115 | -16.24026 | 23203 ft | 456 kts | 2° |
| 2026-04-26 09:27 | 29.12284 | -16.23752 | 23509 ft | 458 kts | 2° |
| 2026-04-26 09:27 | 29.15467 | -16.23476 | 23784 ft | 460 kts | 2° |
| 2026-04-26 09:27 | 29.18662 | -16.23199 | 24046 ft | 462 kts | 2° |
| 2026-04-26 09:27 | 29.21877 | -16.22918 | 24323 ft | 463 kts | 2° |
| 2026-04-26 09:28 | 29.25075 | -16.22639 | 24711 ft | 461 kts | 2° |
| 2026-04-26 09:28 | 29.28278 | -16.22358 | 25086 ft | 460 kts | 2° |
| 2026-04-26 09:28 | 29.31459 | -16.22076 | 25492 ft | 459 kts | 2° |
| 2026-04-26 09:28 | 29.34645 | -16.21792 | 25878 ft | 458 kts | 2° |
| 2026-04-26 09:29 | 29.37818 | -16.21514 | 26272 ft | 457 kts | 2° |
| 2026-04-26 09:29 | 29.40985 | -16.21238 | 26667 ft | 456 kts | 2° |
| 2026-04-26 09:29 | 29.44150 | -16.20962 | 27059 ft | 456 kts | 2° |
| 2026-04-26 09:29 | 29.47306 | -16.20687 | 27451 ft | 455 kts | 2° |
| 2026-04-26 09:30 | 29.50463 | -16.20416 | 27855 ft | 454 kts | 2° |
| 2026-04-26 09:30 | 29.53613 | -16.20143 | 28248 ft | 454 kts | 2° |
| 2026-04-26 09:30 | 29.56759 | -16.19867 | 28656 ft | 453 kts | 2° |
| 2026-04-26 09:30 | 29.59901 | -16.19592 | 29053 ft | 453 kts | 2° |
| 2026-04-26 09:31 | 29.63037 | -16.19316 | 29458 ft | 452 kts | 2° |
| 2026-04-26 09:31 | 29.66172 | -16.19036 | 29853 ft | 452 kts | 2° |
| 2026-04-26 09:31 | 29.69305 | -16.18757 | 30244 ft | 451 kts | 2° |
| 2026-04-26 09:31 | 29.72431 | -16.18478 | 30590 ft | 450 kts | 2° |
| 2026-04-26 09:32 | 29.75550 | -16.18202 | 30929 ft | 449 kts | 2° |
| 2026-04-26 09:32 | 29.78667 | -16.17928 | 31278 ft | 449 kts | 2° |
| 2026-04-26 09:32 | 29.81778 | -16.17657 | 31621 ft | 448 kts | 2° |
| 2026-04-26 09:32 | 29.84888 | -16.17386 | 31968 ft | 447 kts | 2° |
| 2026-04-26 09:33 | 29.87986 | -16.17116 | 32312 ft | 447 kts | 2° |
| 2026-04-26 09:33 | 29.91041 | -16.16848 | 32649 ft | 446 kts | 2° |
| 2026-04-26 09:33 | 29.94133 | -16.16577 | 32997 ft | 445 kts | 2° |
| 2026-04-26 09:33 | 29.97223 | -16.16304 | 33336 ft | 445 kts | 2° |
| 2026-04-26 09:34 | 30.00311 | -16.16027 | 33674 ft | 444 kts | 2° |
| 2026-04-26 09:34 | 30.03388 | -16.15756 | 33985 ft | 444 kts | 2° |
| 2026-04-26 09:34 | 30.06472 | -16.15487 | 34087 ft | 446 kts | 2° |
| 2026-04-26 09:35 | 30.12753 | -16.14938 | 34097 ft | 459 kts | 2° |
| 2026-04-26 09:35 | 30.19179 | -16.14370 | 34101 ft | 465 kts | 2° |
| 2026-04-26 09:36 | 30.25641 | -16.13783 | 34103 ft | 466 kts | 2° |
| 2026-04-26 09:36 | 30.32106 | -16.13199 | 34103 ft | 466 kts | 2° |
| 2026-04-26 09:37 | 30.38576 | -16.12623 | 34104 ft | 466 kts | 2° |
| 2026-04-26 09:37 | 30.45046 | -16.12051 | 34107 ft | 466 kts | 2° |
| 2026-04-26 09:38 | 30.51513 | -16.11473 | 34110 ft | 466 kts | 2° |
| 2026-04-26 09:38 | 30.57981 | -16.10892 | 34112 ft | 467 kts | 2° |
| 2026-04-26 09:39 | 30.64414 | -16.10315 | 34110 ft | 467 kts | 2° |
| 2026-04-26 09:39 | 30.70891 | -16.09741 | 34115 ft | 466 kts | 2° |
| 2026-04-26 09:40 | 30.77359 | -16.09162 | 34117 ft | 466 kts | 2° |
| 2026-04-26 09:40 | 30.83828 | -16.08569 | 34121 ft | 466 kts | 2° |
| 2026-04-26 09:41 | 30.90302 | -16.07994 | 34116 ft | 466 kts | 2° |
| 2026-04-26 09:41 | 30.96773 | -16.07413 | 34119 ft | 466 kts | 2° |
| 2026-04-26 09:42 | 31.03238 | -16.06826 | 34127 ft | 466 kts | 2° |
| 2026-04-26 09:42 | 31.09700 | -16.06236 | 34124 ft | 466 kts | 2° |
| 2026-04-26 09:43 | 31.16162 | -16.05645 | 34127 ft | 465 kts | 2° |
| 2026-04-26 09:43 | 31.22616 | -16.05062 | 34126 ft | 465 kts | 2° |
| 2026-04-26 09:44 | 31.29064 | -16.04491 | 34130 ft | 465 kts | 2° |
| 2026-04-26 09:44 | 31.35511 | -16.03906 | 34132 ft | 465 kts | 2° |
| 2026-04-26 09:45 | 31.41899 | -16.03120 | 34128 ft | 466 kts | 10° |
| 2026-04-26 09:45 | 31.48118 | -16.00773 | 34130 ft | 468 kts | 18° |
| 2026-04-26 09:46 | 31.54193 | -15.98195 | 34126 ft | 468 kts | 18° |
| 2026-04-26 09:46 | 31.60317 | -15.95599 | 34127 ft | 468 kts | 18° |
| 2026-04-26 09:47 | 31.66431 | -15.93002 | 34121 ft | 468 kts | 18° |
| 2026-04-26 09:47 | 31.72556 | -15.90399 | 34121 ft | 468 kts | 18° |
| 2026-04-26 09:48 | 31.78677 | -15.87797 | 34125 ft | 468 kts | 18° |
| 2026-04-26 09:48 | 31.84800 | -15.85194 | 34124 ft | 468 kts | 18° |
| 2026-04-26 09:49 | 31.90939 | -15.82572 | 34123 ft | 468 kts | 18° |
| 2026-04-26 09:49 | 31.97029 | -15.79958 | 34126 ft | 468 kts | 18° |
| 2026-04-26 09:50 | 32.03153 | -15.77333 | 34128 ft | 468 kts | 18° |
| 2026-04-26 09:50 | 32.09288 | -15.74712 | 34124 ft | 469 kts | 18° |
| 2026-04-26 09:51 | 32.15421 | -15.72087 | 34125 ft | 469 kts | 18° |
| 2026-04-26 09:51 | 32.21550 | -15.69453 | 34133 ft | 469 kts | 19° |
| 2026-04-26 09:52 | 32.27684 | -15.66807 | 34129 ft | 469 kts | 19° |
| 2026-04-26 09:52 | 32.36882 | -15.62832 | 34126 ft | 469 kts | 19° |
| 2026-04-26 09:53 | 32.42984 | -15.60199 | 34136 ft | 470 kts | 19° |
| 2026-04-26 09:53 | 32.49123 | -15.57544 | 34136 ft | 470 kts | 19° |
| 2026-04-26 09:54 | 32.55302 | -15.54868 | 34135 ft | 470 kts | 19° |
| 2026-04-26 09:54 | 32.61406 | -15.52221 | 34131 ft | 470 kts | 19° |
| 2026-04-26 09:55 | 32.67550 | -15.49548 | 34139 ft | 470 kts | 19° |
| 2026-04-26 09:55 | 32.73690 | -15.46872 | 34136 ft | 470 kts | 19° |
| 2026-04-26 09:56 | 32.79836 | -15.44194 | 34136 ft | 471 kts | 20° |
| 2026-04-26 09:56 | 32.84987 | -15.41952 | 34136 ft | 471 kts | 20° |
| 2026-04-26 09:57 | 32.91095 | -15.39280 | 34140 ft | 471 kts | 20° |
| 2026-04-26 09:57 | 32.97246 | -15.36587 | 34143 ft | 471 kts | 20° |
| 2026-04-26 09:58 | 33.03390 | -15.33897 | 34144 ft | 471 kts | 20° |
| 2026-04-26 09:58 | 33.09537 | -15.31199 | 34144 ft | 470 kts | 20° |
| 2026-04-26 09:59 | 33.15682 | -15.28501 | 34140 ft | 470 kts | 20° |
| 2026-04-26 09:59 | 33.21820 | -15.25802 | 34150 ft | 470 kts | 20° |
| 2026-04-26 10:00 | 33.27946 | -15.23093 | 34152 ft | 470 kts | 20° |
| 2026-04-26 10:00 | 33.34073 | -15.20380 | 34148 ft | 469 kts | 20° |
| 2026-04-26 10:01 | 33.40201 | -15.17673 | 34148 ft | 469 kts | 20° |
| 2026-04-26 10:01 | 33.46329 | -15.14963 | 34145 ft | 469 kts | 20° |
| 2026-04-26 10:02 | 33.52450 | -15.12244 | 34153 ft | 469 kts | 21° |
| 2026-04-26 10:02 | 33.58530 | -15.09536 | 34151 ft | 469 kts | 21° |
| 2026-04-26 10:03 | 33.64648 | -15.06815 | 34150 ft | 469 kts | 21° |
| 2026-04-26 10:03 | 33.70765 | -15.04095 | 34152 ft | 469 kts | 21° |
| 2026-04-26 10:04 | 33.76876 | -15.01359 | 34154 ft | 468 kts | 21° |
| 2026-04-26 10:04 | 33.82983 | -14.98625 | 34172 ft | 468 kts | 21° |
| 2026-04-26 10:05 | 33.89077 | -14.95904 | 34166 ft | 467 kts | 21° |
| 2026-04-26 10:05 | 33.95168 | -14.93170 | 34170 ft | 466 kts | 21° |
| 2026-04-26 10:06 | 34.01244 | -14.90446 | 34163 ft | 466 kts | 21° |
| 2026-04-26 10:06 | 34.07321 | -14.87716 | 34156 ft | 466 kts | 21° |
| 2026-04-26 10:07 | 34.13392 | -14.84987 | 34163 ft | 465 kts | 21° |
| 2026-04-26 10:07 | 34.19453 | -14.82246 | 34167 ft | 465 kts | 21° |
| 2026-04-26 10:08 | 34.25517 | -14.79497 | 34155 ft | 465 kts | 21° |
| 2026-04-26 10:08 | 34.31543 | -14.76768 | 34151 ft | 465 kts | 21° |
| 2026-04-26 10:09 | 34.37610 | -14.74022 | 34154 ft | 466 kts | 21° |
| 2026-04-26 10:09 | 34.43614 | -14.71089 | 34158 ft | 465 kts | 25° |
| 2026-04-26 10:10 | 34.49470 | -14.67744 | 34156 ft | 465 kts | 27° |
| 2026-04-26 10:10 | 34.55291 | -14.64301 | 34155 ft | 466 kts | 26° |
| 2026-04-26 10:11 | 34.61150 | -14.60926 | 34152 ft | 466 kts | 26° |
| 2026-04-26 10:11 | 34.66978 | -14.57636 | 34150 ft | 467 kts | 26° |
| 2026-04-26 10:12 | 34.72873 | -14.54307 | 34152 ft | 467 kts | 26° |
| 2026-04-26 10:12 | 34.78767 | -14.50960 | 34146 ft | 468 kts | 26° |
| 2026-04-26 10:13 | 34.84624 | -14.47614 | 34152 ft | 468 kts | 26° |
| 2026-04-26 10:13 | 34.90526 | -14.44247 | 34160 ft | 469 kts | 26° |
| 2026-04-26 10:14 | 34.96429 | -14.40880 | 34159 ft | 469 kts | 26° |
| 2026-04-26 10:14 | 35.02339 | -14.37493 | 34161 ft | 469 kts | 26° |
| 2026-04-26 10:15 | 35.08248 | -14.34104 | 34157 ft | 469 kts | 26° |
| 2026-04-26 10:15 | 35.14158 | -14.30704 | 34160 ft | 470 kts | 26° |
| 2026-04-26 10:16 | 35.20068 | -14.27308 | 34158 ft | 470 kts | 26° |
| 2026-04-26 10:16 | 35.25948 | -14.23912 | 34160 ft | 470 kts | 26° |
| 2026-04-26 10:17 | 35.31856 | -14.20497 | 34161 ft | 470 kts | 26° |
| 2026-04-26 10:17 | 35.37758 | -14.17077 | 34164 ft | 470 kts | 25° |
| 2026-04-26 10:18 | 35.43678 | -14.13657 | 34164 ft | 470 kts | 25° |
| 2026-04-26 10:18 | 35.49593 | -14.10228 | 34164 ft | 470 kts | 26° |
| 2026-04-26 10:19 | 35.55505 | -14.06787 | 34167 ft | 470 kts | 25° |
| 2026-04-26 10:19 | 35.61419 | -14.03346 | 34170 ft | 470 kts | 25° |
| 2026-04-26 10:20 | 35.66336 | -14.00482 | 34170 ft | 470 kts | 25° |
| 2026-04-26 10:20 | 35.73203 | -13.96476 | 34171 ft | 470 kts | 25° |
| 2026-04-26 10:21 | 35.79112 | -13.93020 | 34172 ft | 470 kts | 25° |
| 2026-04-26 10:21 | 35.85019 | -13.89554 | 34168 ft | 470 kts | 25° |
| 2026-04-26 10:22 | 35.90925 | -13.86091 | 34172 ft | 470 kts | 25° |
| 2026-04-26 10:22 | 35.96832 | -13.82617 | 34173 ft | 470 kts | 25° |
| 2026-04-26 10:23 | 36.02733 | -13.79134 | 34174 ft | 470 kts | 25° |
| 2026-04-26 10:23 | 36.08638 | -13.75650 | 34175 ft | 470 kts | 25° |
| 2026-04-26 10:24 | 36.14539 | -13.72174 | 34174 ft | 470 kts | 25° |
| 2026-04-26 10:24 | 36.20440 | -13.68691 | 34176 ft | 470 kts | 25° |
| 2026-04-26 10:25 | 36.26339 | -13.65194 | 34175 ft | 470 kts | 25° |
| 2026-04-26 10:25 | 36.32240 | -13.61683 | 34175 ft | 470 kts | 25° |
| 2026-04-26 10:26 | 36.38135 | -13.58175 | 34178 ft | 470 kts | 25° |
| 2026-04-26 10:26 | 36.44029 | -13.54664 | 34174 ft | 470 kts | 25° |
| 2026-04-26 10:27 | 36.49886 | -13.51168 | 34175 ft | 470 kts | 25° |
| 2026-04-26 10:27 | 36.55779 | -13.47634 | 34175 ft | 470 kts | 25° |
| 2026-04-26 10:28 | 36.61675 | -13.44105 | 34176 ft | 470 kts | 25° |
| 2026-04-26 10:28 | 36.67535 | -13.40470 | 34177 ft | 470 kts | 27° |
| 2026-04-26 10:29 | 36.73330 | -13.36694 | 34177 ft | 470 kts | 27° |
| 2026-04-26 10:29 | 36.79125 | -13.32902 | 34175 ft | 470 kts | 27° |
| 2026-04-26 10:30 | 36.84932 | -13.29132 | 34177 ft | 470 kts | 27° |
| 2026-04-26 10:30 | 36.90748 | -13.25382 | 34181 ft | 470 kts | 27° |
| 2026-04-26 10:31 | 36.96565 | -13.21621 | 34177 ft | 470 kts | 27° |
| 2026-04-26 10:31 | 37.02374 | -13.17850 | 34190 ft | 470 kts | 27° |
| 2026-04-26 10:32 | 37.08182 | -13.14073 | 34183 ft | 470 kts | 27° |
| 2026-04-26 10:32 | 37.13985 | -13.10293 | 34182 ft | 470 kts | 27° |
| 2026-04-26 10:33 | 37.19789 | -13.06506 | 34186 ft | 470 kts | 27° |
| 2026-04-26 10:33 | 37.25588 | -13.02722 | 34184 ft | 470 kts | 27° |
| 2026-04-26 10:34 | 37.31345 | -12.98940 | 34195 ft | 470 kts | 27° |
| 2026-04-26 10:34 | 37.37134 | -12.95129 | 34188 ft | 470 kts | 26° |
| 2026-04-26 10:35 | 37.42932 | -12.91332 | 34193 ft | 470 kts | 26° |
| 2026-04-26 10:35 | 37.48722 | -12.87533 | 34192 ft | 469 kts | 26° |
| 2026-04-26 10:36 | 37.54507 | -12.83711 | 34196 ft | 469 kts | 26° |
| 2026-04-26 10:36 | 37.60282 | -12.79885 | 34194 ft | 469 kts | 27° |
| 2026-04-26 10:37 | 37.66058 | -12.76063 | 34198 ft | 469 kts | 26° |
| 2026-04-26 10:37 | 37.71834 | -12.72244 | 34196 ft | 468 kts | 26° |
| 2026-04-26 10:38 | 37.77602 | -12.68410 | 34200 ft | 468 kts | 26° |
| 2026-04-26 10:38 | 37.83365 | -12.64574 | 34194 ft | 468 kts | 27° |
| 2026-04-26 10:39 | 37.89122 | -12.60730 | 34199 ft | 468 kts | 26° |
| 2026-04-26 10:39 | 37.94840 | -12.56913 | 34201 ft | 468 kts | 26° |
| 2026-04-26 10:40 | 38.00591 | -12.53067 | 34194 ft | 467 kts | 26° |
| 2026-04-26 10:40 | 38.06347 | -12.49216 | 34198 ft | 467 kts | 26° |
| 2026-04-26 10:41 | 38.12085 | -12.45362 | 34204 ft | 467 kts | 26° |
| 2026-04-26 10:41 | 38.17822 | -12.41496 | 34203 ft | 466 kts | 26° |
| 2026-04-26 10:42 | 38.22623 | -12.38257 | 34203 ft | 466 kts | 26° |
| 2026-04-26 10:42 | 38.29274 | -12.33771 | 34200 ft | 466 kts | 26° |
| 2026-04-26 10:43 | 38.34999 | -12.29907 | 34206 ft | 465 kts | 26° |
| 2026-04-26 10:43 | 38.40711 | -12.26038 | 34204 ft | 465 kts | 26° |
| 2026-04-26 10:44 | 38.46417 | -12.22168 | 34203 ft | 464 kts | 27° |
| 2026-04-26 10:44 | 38.52115 | -12.18293 | 34201 ft | 464 kts | 27° |
| 2026-04-26 10:45 | 38.57815 | -12.14407 | 34203 ft | 464 kts | 27° |
| 2026-04-26 10:45 | 38.63503 | -12.10536 | 34203 ft | 463 kts | 27° |
| 2026-04-26 10:46 | 38.69195 | -12.06645 | 34205 ft | 463 kts | 27° |
| 2026-04-26 10:46 | 38.74868 | -12.02750 | 34201 ft | 463 kts | 27° |
| 2026-04-26 10:47 | 38.80544 | -11.98864 | 34204 ft | 462 kts | 26° |
| 2026-04-26 10:47 | 38.86181 | -11.95001 | 34201 ft | 462 kts | 27° |
| 2026-04-26 10:48 | 38.91843 | -11.91106 | 34201 ft | 462 kts | 26° |
| 2026-04-26 10:48 | 38.97492 | -11.87194 | 34202 ft | 461 kts | 26° |
| 2026-04-26 10:49 | 39.03143 | -11.83278 | 34200 ft | 461 kts | 27° |
| 2026-04-26 10:49 | 39.08787 | -11.79374 | 34201 ft | 461 kts | 27° |
| 2026-04-26 10:50 | 39.13473 | -11.76131 | 34198 ft | 460 kts | 27° |
| 2026-04-26 10:50 | 39.20065 | -11.71557 | 34202 ft | 460 kts | 27° |
| 2026-04-26 10:51 | 39.27556 | -11.66331 | 34200 ft | 460 kts | 27° |
| 2026-04-26 10:52 | 39.33184 | -11.62399 | 34198 ft | 460 kts | 27° |
| 2026-04-26 10:52 | 39.38789 | -11.58401 | 34189 ft | 460 kts | 29° |
| 2026-04-26 10:53 | 39.44211 | -11.53978 | 34183 ft | 461 kts | 32° |
| 2026-04-26 10:53 | 39.49537 | -11.49332 | 34178 ft | 462 kts | 32° |
| 2026-04-26 10:54 | 39.57585 | -11.42459 | 34180 ft | 462 kts | 31° |
| 2026-04-26 10:54 | 39.62958 | -11.37983 | 34181 ft | 462 kts | 31° |
| 2026-04-26 10:55 | 39.68360 | -11.33441 | 34178 ft | 463 kts | 31° |
| 2026-04-26 10:55 | 39.73753 | -11.28871 | 34180 ft | 463 kts | 31° |
| 2026-04-26 10:56 | 39.79148 | -11.24304 | 34184 ft | 463 kts | 31° |
| 2026-04-26 10:56 | 39.84544 | -11.19733 | 34200 ft | 462 kts | 31° |
| 2026-04-26 10:57 | 39.89928 | -11.15158 | 34198 ft | 462 kts | 31° |
| 2026-04-26 10:57 | 39.95295 | -11.10589 | 34186 ft | 461 kts | 31° |
| 2026-04-26 10:58 | 40.00660 | -11.06005 | 34199 ft | 461 kts | 31° |
| 2026-04-26 10:58 | 40.06019 | -11.01418 | 34197 ft | 460 kts | 31° |
| 2026-04-26 10:59 | 40.11378 | -10.96835 | 34187 ft | 460 kts | 31° |
| 2026-04-26 10:59 | 40.16697 | -10.92279 | 34192 ft | 460 kts | 31° |
| 2026-04-26 11:00 | 40.22048 | -10.87677 | 34181 ft | 460 kts | 31° |
| 2026-04-26 11:00 | 40.27394 | -10.83074 | 34180 ft | 460 kts | 31° |
| 2026-04-26 11:01 | 40.32744 | -10.78453 | 34182 ft | 461 kts | 31° |
| 2026-04-26 11:01 | 40.38090 | -10.73826 | 34184 ft | 461 kts | 31° |
| 2026-04-26 11:02 | 40.43445 | -10.69186 | 34186 ft | 461 kts | 31° |
| 2026-04-26 11:02 | 40.48792 | -10.64544 | 34181 ft | 461 kts | 31° |
| 2026-04-26 11:03 | 40.54149 | -10.59887 | 34174 ft | 462 kts | 31° |
| 2026-04-26 11:03 | 40.59502 | -10.55221 | 34170 ft | 462 kts | 31° |
| 2026-04-26 11:04 | 40.64864 | -10.50534 | 34173 ft | 462 kts | 31° |
| 2026-04-26 11:04 | 40.70191 | -10.45879 | 34170 ft | 463 kts | 31° |
| 2026-04-26 11:05 | 40.75554 | -10.41181 | 34171 ft | 463 kts | 31° |
| 2026-04-26 11:05 | 40.80917 | -10.36470 | 34168 ft | 463 kts | 31° |
| 2026-04-26 11:06 | 40.86276 | -10.31742 | 34171 ft | 463 kts | 31° |
| 2026-04-26 11:06 | 40.91628 | -10.27013 | 34167 ft | 463 kts | 31° |
| 2026-04-26 11:07 | 40.96886 | -10.22374 | 34165 ft | 463 kts | 31° |
| 2026-04-26 11:07 | 41.02253 | -10.17629 | 34168 ft | 464 kts | 31° |
| 2026-04-26 11:08 | 41.07607 | -10.12876 | 34168 ft | 464 kts | 31° |
| 2026-04-26 11:08 | 41.12961 | -10.08110 | 34168 ft | 464 kts | 31° |
| 2026-04-26 11:09 | 41.18316 | -10.03338 | 34167 ft | 463 kts | 31° |
| 2026-04-26 11:09 | 41.23665 | -9.98573 | 34173 ft | 463 kts | 31° |
| 2026-04-26 11:10 | 41.28980 | -9.93829 | 34170 ft | 462 kts | 31° |
| 2026-04-26 11:10 | 41.34315 | -9.89050 | 34174 ft | 462 kts | 31° |
| 2026-04-26 11:11 | 41.39637 | -9.84261 | 34173 ft | 461 kts | 31° |
| 2026-04-26 11:11 | 41.44945 | -9.79481 | 34473 ft | 458 kts | 31° |
| 2026-04-26 11:12 | 41.47581 | -9.77107 | 34714 ft | 457 kts | 31° |
| 2026-04-26 11:12 | 41.50215 | -9.74734 | 34954 ft | 456 kts | 31° |
| 2026-04-26 11:12 | 41.52842 | -9.72363 | 35111 ft | 456 kts | 31° |
| 2026-04-26 11:12 | 41.55462 | -9.69994 | 35149 ft | 455 kts | 31° |
| 2026-04-26 11:13 | 41.60692 | -9.65254 | 35153 ft | 454 kts | 32° |
| 2026-04-26 11:13 | 41.65920 | -9.60508 | 35149 ft | 453 kts | 31° |
| 2026-04-26 11:14 | 41.71100 | -9.55808 | 35150 ft | 453 kts | 32° |
| 2026-04-26 11:14 | 41.76310 | -9.51063 | 35149 ft | 452 kts | 32° |
| 2026-04-26 11:15 | 41.81513 | -9.46314 | 35150 ft | 452 kts | 32° |
| 2026-04-26 11:15 | 41.86719 | -9.41572 | 35154 ft | 452 kts | 32° |
| 2026-04-26 11:16 | 41.91915 | -9.36799 | 35155 ft | 453 kts | 34° |
| 2026-04-26 11:16 | 41.96681 | -9.31237 | 35160 ft | 454 kts | 39° |
| 2026-04-26 11:17 | 42.01365 | -9.25543 | 35156 ft | 454 kts | 39° |
| 2026-04-26 11:17 | 42.03705 | -9.22700 | 35309 ft | 452 kts | 39° |
| 2026-04-26 11:17 | 42.06032 | -9.19872 | 35561 ft | 451 kts | 39° |
| 2026-04-26 11:18 | 42.08359 | -9.17041 | 35812 ft | 450 kts | 40° |
| 2026-04-26 11:18 | 42.10676 | -9.14216 | 36046 ft | 450 kts | 40° |
| 2026-04-26 11:18 | 42.15310 | -9.08550 | 36145 ft | 449 kts | 40° |
| 2026-04-26 11:19 | 42.19929 | -9.02897 | 36149 ft | 448 kts | 40° |
| 2026-04-26 11:19 | 42.24546 | -8.97242 | 36159 ft | 448 kts | 40° |
| 2026-04-26 11:20 | 42.28381 | -8.92537 | 36158 ft | 448 kts | 40° |
| 2026-04-26 11:20 | 42.33764 | -8.85919 | 36164 ft | 448 kts | 40° |
| 2026-04-26 11:21 | 42.38367 | -8.80234 | 36167 ft | 448 kts | 40° |
| 2026-04-26 11:21 | 42.42974 | -8.74527 | 36167 ft | 449 kts | 40° |
| 2026-04-26 11:22 | 42.47580 | -8.68822 | 36168 ft | 449 kts | 40° |
| 2026-04-26 11:22 | 42.52157 | -8.63155 | 36167 ft | 449 kts | 40° |
| 2026-04-26 11:23 | 42.56752 | -8.57443 | 36167 ft | 449 kts | 41° |
| 2026-04-26 11:23 | 42.61354 | -8.51695 | 36169 ft | 449 kts | 41° |
| 2026-04-26 11:24 | 42.65955 | -8.45940 | 36169 ft | 449 kts | 41° |
| 2026-04-26 11:24 | 42.70551 | -8.40186 | 36173 ft | 450 kts | 41° |
| 2026-04-26 11:25 | 42.75172 | -8.34387 | 36166 ft | 457 kts | 42° |
| 2026-04-26 11:25 | 42.79878 | -8.28475 | 36162 ft | 462 kts | 42° |
| 2026-04-26 11:26 | 42.84601 | -8.22533 | 36161 ft | 462 kts | 42° |
| 2026-04-26 11:26 | 42.89326 | -8.16564 | 36161 ft | 462 kts | 42° |
| 2026-04-26 11:27 | 42.94040 | -8.10590 | 36159 ft | 463 kts | 42° |
| 2026-04-26 11:27 | 42.98756 | -8.04613 | 36162 ft | 463 kts | 42° |
| 2026-04-26 11:28 | 43.03444 | -7.98659 | 36174 ft | 463 kts | 42° |
| 2026-04-26 11:28 | 43.08159 | -7.92656 | 36165 ft | 463 kts | 42° |
| 2026-04-26 11:29 | 43.12874 | -7.86633 | 36166 ft | 464 kts | 42° |
| 2026-04-26 11:29 | 43.17590 | -7.80594 | 36171 ft | 464 kts | 42° |
| 2026-04-26 11:30 | 43.21508 | -7.75571 | 36173 ft | 465 kts | 42° |
| 2026-04-26 11:30 | 43.27027 | -7.68473 | 36179 ft | 465 kts | 42° |
| 2026-04-26 11:31 | 43.31744 | -7.62396 | 36187 ft | 465 kts | 42° |
| 2026-04-26 11:31 | 43.36428 | -7.56350 | 36205 ft | 465 kts | 42° |
| 2026-04-26 11:32 | 43.41144 | -7.50250 | 36201 ft | 465 kts | 42° |
| 2026-04-26 11:32 | 43.45855 | -7.44148 | 36209 ft | 465 kts | 42° |
| 2026-04-26 11:33 | 43.50568 | -7.38031 | 36215 ft | 465 kts | 42° |
| 2026-04-26 11:33 | 43.55261 | -7.31917 | 36222 ft | 465 kts | 43° |
| 2026-04-26 11:34 | 43.59964 | -7.25770 | 36225 ft | 465 kts | 43° |
| 2026-04-26 11:34 | 43.64662 | -7.19621 | 36230 ft | 465 kts | 43° |
| 2026-04-26 11:35 | 43.69354 | -7.13472 | 36228 ft | 466 kts | 43° |
| 2026-04-26 11:35 | 43.73263 | -7.08338 | 36232 ft | 466 kts | 43° |
| 2026-04-26 11:36 | 43.78749 | -7.01103 | 36234 ft | 466 kts | 43° |
| 2026-04-26 11:36 | 43.83448 | -6.94903 | 36236 ft | 466 kts | 43° |
| 2026-04-26 11:37 | 43.88142 | -6.88700 | 36240 ft | 466 kts | 43° |
| 2026-04-26 11:37 | 43.92826 | -6.82497 | 36237 ft | 466 kts | 43° |
| 2026-04-26 11:38 | 43.97481 | -6.76299 | 36235 ft | 467 kts | 43° |
| 2026-04-26 11:38 | 44.02160 | -6.70052 | 36235 ft | 467 kts | 43° |
| 2026-04-26 11:39 | 44.06843 | -6.63798 | 36240 ft | 467 kts | 43° |
| 2026-04-26 11:39 | 44.11523 | -6.57539 | 36238 ft | 467 kts | 43° |
| 2026-04-26 11:40 | 44.16206 | -6.51259 | 36240 ft | 467 kts | 43° |
| 2026-04-26 11:40 | 44.20887 | -6.44972 | 36245 ft | 467 kts | 43° |
| 2026-04-26 11:42 | 44.39537 | -6.19727 | 36250 ft | 468 kts | 43° |
| 2026-04-26 11:43 | 44.44206 | -6.13384 | 36248 ft | 468 kts | 43° |
| 2026-04-26 11:43 | 44.48866 | -6.07038 | 36246 ft | 468 kts | 43° |
| 2026-04-26 11:44 | 44.53522 | -6.00660 | 36247 ft | 468 kts | 44° |
| 2026-04-26 11:44 | 44.58172 | -5.94274 | 36249 ft | 468 kts | 43° |
| 2026-04-26 11:45 | 44.62829 | -5.87883 | 36249 ft | 468 kts | 43° |
| 2026-04-26 11:45 | 44.67451 | -5.81537 | 36247 ft | 468 kts | 43° |
| 2026-04-26 11:46 | 44.72115 | -5.75156 | 36248 ft | 468 kts | 43° |
| 2026-04-26 11:46 | 44.76786 | -5.68765 | 36253 ft | 468 kts | 43° |
| 2026-04-26 11:47 | 44.80691 | -5.63405 | 36251 ft | 468 kts | 43° |
| 2026-04-26 11:47 | 44.85323 | -5.57028 | 36247 ft | 469 kts | 44° |
| 2026-04-26 11:48 | 44.89977 | -5.50596 | 36246 ft | 469 kts | 44° |
| 2026-04-26 11:48 | 44.94633 | -5.44154 | 36248 ft | 469 kts | 44° |
| 2026-04-26 11:49 | 44.99286 | -5.37702 | 36246 ft | 469 kts | 44° |
| 2026-04-26 11:49 | 45.03943 | -5.31241 | 36247 ft | 469 kts | 44° |
| 2026-04-26 11:50 | 45.08602 | -5.24758 | 36244 ft | 470 kts | 44° |
| 2026-04-26 11:50 | 45.13249 | -5.18256 | 36247 ft | 470 kts | 44° |
| 2026-04-26 11:51 | 45.17892 | -5.11750 | 36244 ft | 470 kts | 44° |
| 2026-04-26 11:51 | 45.22541 | -5.05242 | 36249 ft | 470 kts | 44° |
| 2026-04-26 11:52 | 45.27184 | -4.98716 | 36249 ft | 470 kts | 44° |
| 2026-04-26 11:52 | 45.31819 | -4.92160 | 36247 ft | 470 kts | 44° |
| 2026-04-26 11:53 | 45.36457 | -4.85601 | 36248 ft | 471 kts | 44° |
| 2026-04-26 11:54 | 45.43421 | -4.75741 | 36255 ft | 471 kts | 44° |
| 2026-04-26 11:54 | 45.48061 | -4.69144 | 36244 ft | 471 kts | 44° |
| 2026-04-26 11:55 | 45.52688 | -4.62541 | 36248 ft | 471 kts | 44° |
| 2026-04-26 11:55 | 45.57314 | -4.55922 | 36249 ft | 471 kts | 44° |
| 2026-04-26 11:56 | 45.61893 | -4.49348 | 36242 ft | 471 kts | 44° |
| 2026-04-26 11:56 | 45.66520 | -4.42709 | 36244 ft | 471 kts | 44° |
| 2026-04-26 11:57 | 45.71131 | -4.36066 | 36245 ft | 471 kts | 44° |
| 2026-04-26 11:57 | 45.75741 | -4.29411 | 36244 ft | 471 kts | 44° |
| 2026-04-26 11:58 | 45.80351 | -4.22735 | 36245 ft | 471 kts | 44° |
| 2026-04-26 11:58 | 45.84804 | -4.16288 | 36247 ft | 471 kts | 44° |
| 2026-04-26 11:59 | 45.89411 | -4.09594 | 36245 ft | 471 kts | 44° |
| 2026-04-26 11:59 | 45.94005 | -4.02876 | 36244 ft | 471 kts | 44° |
| 2026-04-26 12:00 | 45.98598 | -3.96158 | 36243 ft | 471 kts | 44° |
| 2026-04-26 12:00 | 46.03194 | -3.89443 | 36240 ft | 471 kts | 44° |
| 2026-04-26 12:01 | 46.07778 | -3.82706 | 36241 ft | 471 kts | 45° |
| 2026-04-26 12:01 | 46.12360 | -3.75946 | 36246 ft | 471 kts | 45° |
| 2026-04-26 12:02 | 46.16940 | -3.69183 | 36250 ft | 471 kts | 45° |
| 2026-04-26 12:02 | 46.21516 | -3.62414 | 36250 ft | 471 kts | 45° |
| 2026-04-26 12:03 | 46.26067 | -3.55666 | 36246 ft | 472 kts | 45° |
| 2026-04-26 12:03 | 46.30637 | -3.48866 | 36247 ft | 471 kts | 45° |
| 2026-04-26 12:04 | 46.35195 | -3.42064 | 36257 ft | 471 kts | 45° |
| 2026-04-26 12:04 | 46.39750 | -3.35243 | 36250 ft | 471 kts | 45° |
| 2026-04-26 12:05 | 46.44305 | -3.28414 | 36247 ft | 470 kts | 45° |
| 2026-04-26 12:05 | 46.48847 | -3.21601 | 36245 ft | 470 kts | 45° |
| 2026-04-26 12:06 | 46.53385 | -3.14761 | 36243 ft | 470 kts | 45° |
| 2026-04-26 12:06 | 46.57629 | -3.07546 | 36240 ft | 471 kts | 57° |
| 2026-04-26 12:07 | 46.60953 | -2.99338 | 36242 ft | 472 kts | 59° |
| 2026-04-26 12:07 | 46.64270 | -2.91085 | 36245 ft | 472 kts | 59° |
| 2026-04-26 12:08 | 46.67579 | -2.82838 | 36246 ft | 472 kts | 59° |
| 2026-04-26 12:08 | 46.70883 | -2.74571 | 36246 ft | 472 kts | 59° |
| 2026-04-26 12:09 | 46.74167 | -2.66294 | 36242 ft | 472 kts | 59° |
| 2026-04-26 12:09 | 46.77452 | -2.57997 | 36245 ft | 472 kts | 59° |
| 2026-04-26 12:10 | 46.80731 | -2.49700 | 36244 ft | 472 kts | 59° |
| 2026-04-26 12:10 | 46.83983 | -2.41446 | 36245 ft | 472 kts | 59° |
| 2026-04-26 12:11 | 46.87766 | -2.33693 | 36241 ft | 468 kts | 44° |
| 2026-04-26 12:11 | 46.92342 | -2.26933 | 36241 ft | 467 kts | 43° |
| 2026-04-26 12:12 | 46.96909 | -2.20159 | 36236 ft | 467 kts | 44° |
| 2026-04-26 12:12 | 47.01458 | -2.13370 | 36234 ft | 467 kts | 44° |
| 2026-04-26 12:13 | 47.06008 | -2.06574 | 36232 ft | 467 kts | 44° |
| 2026-04-26 12:13 | 47.10547 | -1.99775 | 36235 ft | 467 kts | 44° |
| 2026-04-26 12:14 | 47.15089 | -1.92964 | 36234 ft | 466 kts | 44° |
| 2026-04-26 12:14 | 47.19620 | -1.86148 | 36233 ft | 466 kts | 44° |
| 2026-04-26 12:15 | 47.24146 | -1.79308 | 36234 ft | 466 kts | 44° |
| 2026-04-26 12:15 | 47.28269 | -1.73071 | 36233 ft | 466 kts | 44° |
| 2026-04-26 12:16 | 47.32788 | -1.66233 | 36236 ft | 466 kts | 44° |
| 2026-04-26 12:16 | 47.37302 | -1.59374 | 36234 ft | 466 kts | 44° |
| 2026-04-26 12:17 | 47.41804 | -1.52508 | 36231 ft | 465 kts | 44° |
| 2026-04-26 12:17 | 47.46270 | -1.45680 | 36228 ft | 465 kts | 44° |
| 2026-04-26 12:18 | 47.50762 | -1.38800 | 36231 ft | 465 kts | 44° |
| 2026-04-26 12:18 | 47.55242 | -1.31916 | 36232 ft | 465 kts | 44° |
| 2026-04-26 12:19 | 47.59723 | -1.25017 | 36231 ft | 464 kts | 44° |
| 2026-04-26 12:19 | 47.64199 | -1.18118 | 36232 ft | 464 kts | 44° |
| 2026-04-26 12:20 | 47.68675 | -1.11200 | 36232 ft | 464 kts | 44° |
| 2026-04-26 12:20 | 47.73135 | -1.04273 | 36228 ft | 464 kts | 44° |
| 2026-04-26 12:21 | 47.77587 | -0.97336 | 36230 ft | 464 kts | 44° |
| 2026-04-26 12:21 | 47.82034 | -0.90387 | 36228 ft | 464 kts | 44° |
| 2026-04-26 12:22 | 47.86482 | -0.83432 | 36229 ft | 464 kts | 44° |
| 2026-04-26 12:22 | 47.90931 | -0.76460 | 36230 ft | 464 kts | 44° |
| 2026-04-26 12:23 | 47.95374 | -0.69475 | 36224 ft | 464 kts | 44° |
| 2026-04-26 12:23 | 47.99807 | -0.62470 | 36224 ft | 464 kts | 44° |
| 2026-04-26 12:24 | 48.04209 | -0.55494 | 36221 ft | 465 kts | 44° |
| 2026-04-26 12:24 | 48.08638 | -0.48460 | 36222 ft | 465 kts | 44° |
| 2026-04-26 12:25 | 48.15293 | -0.37879 | 36227 ft | 465 kts | 44° |
| 2026-04-26 12:25 | 48.19728 | -0.30803 | 36237 ft | 466 kts | 44° |
| 2026-04-26 12:26 | 48.24155 | -0.23718 | 36236 ft | 466 kts | 44° |
| 2026-04-26 12:26 | 48.28580 | -0.16614 | 36242 ft | 466 kts | 44° |
| 2026-04-26 12:27 | 48.33000 | -0.09495 | 36247 ft | 466 kts | 44° |
| 2026-04-26 12:27 | 48.37404 | -0.02359 | 36250 ft | 466 kts | 45° |
| 2026-04-26 12:28 | 48.41690 | 0.04949 | 36253 ft | 466 kts | 46° |
| 2026-04-26 12:28 | 48.45898 | 0.12365 | 36256 ft | 466 kts | 46° |
| 2026-04-26 12:29 | 48.50118 | 0.19770 | 36260 ft | 465 kts | 46° |
| 2026-04-26 12:30 | 48.56470 | 0.30808 | 36263 ft | 464 kts | 46° |
| 2026-04-26 12:30 | 48.60660 | 0.38113 | 36268 ft | 463 kts | 46° |
| 2026-04-26 12:31 | 48.66964 | 0.49181 | 36273 ft | 462 kts | 46° |
| 2026-04-26 12:31 | 48.71150 | 0.56550 | 36274 ft | 462 kts | 46° |
| 2026-04-26 12:32 | 48.75334 | 0.63938 | 36274 ft | 461 kts | 46° |
| 2026-04-26 12:33 | 48.81597 | 0.75015 | 36279 ft | 461 kts | 46° |
| 2026-04-26 12:33 | 48.85758 | 0.82423 | 36283 ft | 461 kts | 46° |
| 2026-04-26 12:34 | 48.89914 | 0.89837 | 36288 ft | 461 kts | 46° |
| 2026-04-26 12:34 | 48.94069 | 0.97257 | 36291 ft | 461 kts | 46° |
| 2026-04-26 12:35 | 48.98219 | 1.04694 | 36286 ft | 460 kts | 46° |
| 2026-04-26 12:35 | 49.02355 | 1.12138 | 36296 ft | 460 kts | 46° |
| 2026-04-26 12:36 | 49.06486 | 1.19587 | 36291 ft | 460 kts | 46° |
| 2026-04-26 12:36 | 49.10578 | 1.26990 | 36300 ft | 460 kts | 46° |
| 2026-04-26 12:37 | 49.14702 | 1.34460 | 36293 ft | 459 kts | 46° |
| 2026-04-26 12:37 | 49.18813 | 1.41928 | 36287 ft | 459 kts | 46° |
| 2026-04-26 12:38 | 49.22914 | 1.49406 | 36288 ft | 459 kts | 46° |
| 2026-04-26 12:38 | 49.26353 | 1.55571 | 36280 ft | 457 kts | 42° |
| 2026-04-26 12:39 | 49.30926 | 1.62288 | 36289 ft | 455 kts | 40° |
| 2026-04-26 12:39 | 49.35508 | 1.68978 | 36294 ft | 455 kts | 40° |
| 2026-04-26 12:40 | 49.40092 | 1.75678 | 36294 ft | 455 kts | 40° |
| 2026-04-26 12:40 | 49.44665 | 1.82383 | 36296 ft | 455 kts | 40° |
| 2026-04-26 12:41 | 49.49238 | 1.89125 | 36293 ft | 455 kts | 40° |
| 2026-04-26 12:41 | 49.53802 | 1.95887 | 36296 ft | 456 kts | 40° |
| 2026-04-26 12:42 | 49.58367 | 2.02657 | 36296 ft | 456 kts | 40° |
| 2026-04-26 12:42 | 49.62907 | 2.09392 | 36298 ft | 456 kts | 40° |
| 2026-04-26 12:43 | 49.67464 | 2.16182 | 36302 ft | 455 kts | 40° |
| 2026-04-26 12:43 | 49.72018 | 2.22985 | 36307 ft | 455 kts | 40° |
| 2026-04-26 12:44 | 49.76569 | 2.29795 | 36307 ft | 455 kts | 40° |
| 2026-04-26 12:44 | 49.81195 | 2.36462 | 36314 ft | 454 kts | 38° |
| 2026-04-26 12:45 | 49.85917 | 2.42928 | 36319 ft | 453 kts | 37° |
| 2026-04-26 12:45 | 49.90638 | 2.49417 | 36321 ft | 453 kts | 38° |
| 2026-04-26 12:46 | 49.95316 | 2.55966 | 36326 ft | 453 kts | 38° |
| 2026-04-26 12:46 | 49.99990 | 2.62554 | 36324 ft | 453 kts | 38° |
| 2026-04-26 12:47 | 50.04653 | 2.69123 | 36323 ft | 453 kts | 38° |
| 2026-04-26 12:47 | 50.09319 | 2.75711 | 36324 ft | 452 kts | 38° |
| 2026-04-26 12:48 | 50.13973 | 2.82311 | 36321 ft | 452 kts | 38° |
| 2026-04-26 12:48 | 50.18618 | 2.88910 | 36319 ft | 452 kts | 38° |
| 2026-04-26 12:49 | 50.23235 | 2.95497 | 36316 ft | 452 kts | 38° |
| 2026-04-26 12:49 | 50.25541 | 2.98794 | 36509 ft | 449 kts | 38° |
| 2026-04-26 12:49 | 50.27847 | 3.02096 | 36772 ft | 449 kts | 38° |
| 2026-04-26 12:49 | 50.30175 | 3.05322 | 37040 ft | 445 kts | 32° |
| 2026-04-26 12:50 | 50.32796 | 3.07812 | 37245 ft | 440 kts | 24° |
| 2026-04-26 12:50 | 50.38214 | 3.12279 | 37297 ft | 440 kts | 24° |
| 2026-04-26 12:51 | 50.43633 | 3.16707 | 37300 ft | 439 kts | 24° |
| 2026-04-26 12:51 | 50.49052 | 3.21164 | 37301 ft | 439 kts | 24° |
| 2026-04-26 12:52 | 50.54461 | 3.25639 | 37305 ft | 439 kts | 24° |
| 2026-04-26 12:52 | 50.59865 | 3.30123 | 37305 ft | 440 kts | 24° |
| 2026-04-26 12:53 | 50.65272 | 3.34631 | 37306 ft | 440 kts | 24° |
| 2026-04-26 12:53 | 50.70682 | 3.39146 | 37309 ft | 440 kts | 24° |
| 2026-04-26 12:54 | 50.76088 | 3.43658 | 37314 ft | 440 kts | 24° |
| 2026-04-26 12:54 | 50.81502 | 3.48185 | 37317 ft | 440 kts | 24° |
| 2026-04-26 12:55 | 50.86918 | 3.52728 | 37318 ft | 440 kts | 24° |
| 2026-04-26 12:55 | 50.92330 | 3.57292 | 37320 ft | 440 kts | 24° |
| 2026-04-26 12:56 | 50.97701 | 3.61838 | 37326 ft | 440 kts | 24° |
| 2026-04-26 12:56 | 51.03112 | 3.66418 | 37333 ft | 441 kts | 24° |
| 2026-04-26 12:57 | 51.08515 | 3.71006 | 37328 ft | 441 kts | 24° |
| 2026-04-26 12:57 | 51.13925 | 3.75603 | 37332 ft | 440 kts | 24° |
| 2026-04-26 12:58 | 51.22029 | 3.82522 | 37337 ft | 441 kts | 24° |
| 2026-04-26 12:58 | 51.27426 | 3.87159 | 37329 ft | 441 kts | 24° |
| 2026-04-26 12:59 | 51.32826 | 3.91810 | 37336 ft | 441 kts | 24° |
| 2026-04-26 12:59 | 51.38223 | 3.96462 | 37341 ft | 441 kts | 24° |
| 2026-04-26 13:00 | 51.43623 | 4.01130 | 37340 ft | 441 kts | 24° |
| 2026-04-26 13:00 | 51.48794 | 4.06476 | 37347 ft | 448 kts | 38° |
| 2026-04-26 13:01 | 51.53056 | 4.13762 | 37346 ft | 452 kts | 44° |
| 2026-04-26 13:01 | 51.57266 | 4.21314 | 37347 ft | 452 kts | 44° |
| 2026-04-26 13:02 | 51.61469 | 4.28835 | 37346 ft | 452 kts | 44° |
| 2026-04-26 13:02 | 51.65676 | 4.36381 | 37346 ft | 453 kts | 44° |
| 2026-04-26 13:03 | 51.69854 | 4.43915 | 37343 ft | 453 kts | 44° |
| 2026-04-26 13:03 | 51.74025 | 4.51470 | 37347 ft | 453 kts | 44° |
| 2026-04-26 13:04 | 51.78212 | 4.59080 | 37354 ft | 454 kts | 44° |
| 2026-04-26 13:04 | 51.82092 | 4.66149 | 37352 ft | 454 kts | 44° |
| 2026-04-26 13:05 | 51.86065 | 4.73388 | 37354 ft | 454 kts | 45° |
| 2026-04-26 13:05 | 51.90249 | 4.81040 | 37350 ft | 454 kts | 45° |
| 2026-04-26 13:06 | 51.94422 | 4.88714 | 37346 ft | 454 kts | 45° |
| 2026-04-26 13:06 | 51.98592 | 4.96408 | 37345 ft | 454 kts | 45° |
| 2026-04-26 13:07 | 52.02760 | 5.04110 | 37349 ft | 454 kts | 45° |
| 2026-04-26 13:07 | 52.06933 | 5.11835 | 37351 ft | 454 kts | 45° |
| 2026-04-26 13:08 | 52.11091 | 5.19562 | 37350 ft | 455 kts | 45° |
| 2026-04-26 13:08 | 52.15252 | 5.27326 | 37347 ft | 455 kts | 45° |
| 2026-04-26 13:09 | 52.19410 | 5.35103 | 37352 ft | 455 kts | 45° |
| 2026-04-26 13:09 | 52.23542 | 5.42853 | 37359 ft | 456 kts | 46° |
| 2026-04-26 13:10 | 52.27383 | 5.51216 | 37362 ft | 458 kts | 51° |
| 2026-04-26 13:10 | 52.31051 | 5.59743 | 37361 ft | 459 kts | 52° |
| 2026-04-26 13:11 | 52.34670 | 5.68273 | 37363 ft | 459 kts | 52° |
| 2026-04-26 13:11 | 52.38333 | 5.76832 | 37361 ft | 460 kts | 52° |
| 2026-04-26 13:12 | 52.42015 | 5.85405 | 37366 ft | 461 kts | 52° |
| 2026-04-26 13:12 | 52.45697 | 5.94009 | 37362 ft | 461 kts | 52° |
| 2026-04-26 13:13 | 52.49367 | 6.02633 | 37357 ft | 461 kts | 52° |
| 2026-04-26 13:13 | 52.53031 | 6.11289 | 37355 ft | 461 kts | 52° |
| 2026-04-26 13:14 | 52.56689 | 6.19943 | 37358 ft | 462 kts | 52° |
| 2026-04-26 13:14 | 52.60354 | 6.28648 | 37345 ft | 463 kts | 52° |
| 2026-04-26 13:15 | 52.64010 | 6.37356 | 37347 ft | 463 kts | 52° |
| 2026-04-26 13:15 | 52.67045 | 6.44622 | 37347 ft | 463 kts | 52° |
| 2026-04-26 13:16 | 52.71309 | 6.54843 | 37349 ft | 463 kts | 52° |
| 2026-04-26 13:16 | 52.74954 | 6.63613 | 37357 ft | 464 kts | 53° |
| 2026-04-26 13:17 | 52.80408 | 6.76823 | 37352 ft | 464 kts | 53° |
| 2026-04-26 13:18 | 52.85843 | 6.90013 | 37357 ft | 465 kts | 53° |
| 2026-04-26 13:19 | 52.91280 | 7.03288 | 37349 ft | 464 kts | 53° |
| 2026-04-26 13:19 | 52.94891 | 7.12163 | 37353 ft | 465 kts | 53° |
| 2026-04-26 13:20 | 52.98533 | 7.21125 | 37335 ft | 473 kts | 53° |
| 2026-04-26 13:20 | 53.02229 | 7.30247 | 37335 ft | 478 kts | 53° |
| 2026-04-26 13:21 | 53.05935 | 7.39432 | 37336 ft | 479 kts | 53° |
| 2026-04-26 13:21 | 53.08961 | 7.49284 | 37344 ft | 483 kts | 69° |
| 2026-04-26 13:22 | 53.11117 | 7.59890 | 37339 ft | 484 kts | 70° |
| 2026-04-26 13:22 | 53.13235 | 7.70546 | 37350 ft | 485 kts | 70° |
| 2026-04-26 13:23 | 53.15331 | 7.81163 | 37359 ft | 486 kts | 70° |
| 2026-04-26 13:23 | 53.17450 | 7.91872 | 37362 ft | 486 kts | 70° |
| 2026-04-26 13:24 | 53.19538 | 8.02509 | 37329 ft | 475 kts | 70° |
| 2026-04-26 13:24 | 53.20564 | 8.07731 | 37186 ft | 473 kts | 70° |
| 2026-04-26 13:24 | 53.21589 | 8.12943 | 36924 ft | 472 kts | 70° |
| 2026-04-26 13:24 | 53.22608 | 8.18145 | 36659 ft | 472 kts | 70° |
| 2026-04-26 13:25 | 53.23625 | 8.23356 | 36404 ft | 472 kts | 70° |
| 2026-04-26 13:25 | 53.24639 | 8.28580 | 36147 ft | 473 kts | 70° |
| 2026-04-26 13:25 | 53.25648 | 8.33807 | 35886 ft | 474 kts | 70° |
| 2026-04-26 13:25 | 53.26650 | 8.39011 | 35648 ft | 475 kts | 71° |
| 2026-04-26 13:26 | 53.27664 | 8.44302 | 35101 ft | 477 kts | 71° |
| 2026-04-26 13:26 | 53.28679 | 8.49612 | 34214 ft | 481 kts | 71° |
| 2026-04-26 13:26 | 53.29699 | 8.54959 | 33243 ft | 485 kts | 71° |
| 2026-04-26 13:26 | 53.30726 | 8.60339 | 32329 ft | 486 kts | 71° |
| 2026-04-26 13:27 | 53.31752 | 8.65722 | 31343 ft | 485 kts | 71° |
| 2026-04-26 13:27 | 53.32769 | 8.71084 | 30392 ft | 484 kts | 71° |
| 2026-04-26 13:27 | 53.33789 | 8.76476 | 29234 ft | 488 kts | 71° |
| 2026-04-26 13:27 | 53.34813 | 8.81904 | 28091 ft | 491 kts | 71° |
| 2026-04-26 13:28 | 53.35841 | 8.87360 | 26941 ft | 493 kts | 71° |
| 2026-04-26 13:28 | 53.36874 | 8.92860 | 25660 ft | 497 kts | 71° |
| 2026-04-26 13:28 | 53.37903 | 8.98373 | 24394 ft | 495 kts | 71° |
| 2026-04-26 13:28 | 53.38917 | 9.03828 | 23131 ft | 485 kts | 71° |
| 2026-04-26 13:29 | 53.39911 | 9.09187 | 22211 ft | 479 kts | 71° |
| 2026-04-26 13:29 | 53.40564 | 9.12713 | 21581 ft | 476 kts | 71° |
| 2026-04-26 13:29 | 53.41867 | 9.19762 | 20324 ft | 471 kts | 71° |
| 2026-04-26 13:29 | 53.42830 | 9.24991 | 19381 ft | 465 kts | 71° |
| 2026-04-26 13:30 | 53.43759 | 9.30047 | 18468 ft | 455 kts | 71° |
| 2026-04-26 13:30 | 53.44690 | 9.35135 | 17505 ft | 445 kts | 71° |
| 2026-04-26 13:30 | 53.45285 | 9.38396 | 16934 ft | 438 kts | 71° |
| 2026-04-26 13:30 | 53.46452 | 9.44794 | 15791 ft | 430 kts | 71° |
| 2026-04-26 13:31 | 53.47323 | 9.49579 | 14949 ft | 427 kts | 71° |
| 2026-04-26 13:31 | 53.48187 | 9.54327 | 14141 ft | 424 kts | 71° |
| 2026-04-26 13:31 | 53.48765 | 9.57523 | 13577 ft | 422 kts | 71° |
| 2026-04-26 13:31 | 53.49880 | 9.63703 | 12582 ft | 413 kts | 71° |
| 2026-04-26 13:32 | 53.50437 | 9.66804 | 12092 ft | 408 kts | 71° |
| 2026-04-26 13:32 | 53.51246 | 9.71333 | 11380 ft | 401 kts | 71° |
| 2026-04-26 13:32 | 53.52022 | 9.75692 | 11024 ft | 377 kts | 70° |
| 2026-04-26 13:32 | 53.52739 | 9.79741 | 10825 ft | 346 kts | 70° |
| 2026-04-26 13:33 | 53.53398 | 9.83469 | 10707 ft | 320 kts | 70° |
| 2026-04-26 13:33 | 53.54006 | 9.86907 | 10446 ft | 304 kts | 70° |
| 2026-04-26 13:33 | 53.54602 | 9.90260 | 10212 ft | 299 kts | 70° |
| 2026-04-26 13:33 | 53.55199 | 9.93588 | 9934 ft | 295 kts | 70° |
| 2026-04-26 13:34 | 53.55789 | 9.96876 | 9808 ft | 293 kts | 70° |
| 2026-04-26 13:34 | 53.56373 | 10.00159 | 9672 ft | 293 kts | 70° |
| 2026-04-26 13:34 | 53.56952 | 10.03438 | 9537 ft | 292 kts | 70° |
| 2026-04-26 13:34 | 53.57342 | 10.05654 | 9449 ft | 292 kts | 70° |
| 2026-04-26 13:35 | 53.58136 | 10.09939 | 9278 ft | 284 kts | 64° |
| 2026-04-26 13:35 | 53.59057 | 10.12783 | 9127 ft | 271 kts | 50° |
| 2026-04-26 13:35 | 53.60228 | 10.15195 | 8966 ft | 263 kts | 46° |
| 2026-04-26 13:35 | 53.61431 | 10.17599 | 8629 ft | 275 kts | 46° |
| 2026-04-26 13:36 | 53.62671 | 10.20082 | 8271 ft | 278 kts | 47° |
| 2026-04-26 13:36 | 53.63915 | 10.22591 | 7899 ft | 280 kts | 47° |
| 2026-04-26 13:36 | 53.65161 | 10.25119 | 7543 ft | 281 kts | 48° |
| 2026-04-26 13:36 | 53.66405 | 10.27642 | 7220 ft | 279 kts | 48° |
| 2026-04-26 13:37 | 53.67628 | 10.30121 | 6811 ft | 273 kts | 48° |
| 2026-04-26 13:37 | 53.68829 | 10.32553 | 6348 ft | 266 kts | 49° |
| 2026-04-26 13:37 | 53.70167 | 10.34574 | 5977 ft | 253 kts | 24° |
| 2026-04-26 13:37 | 53.71835 | 10.35137 | 5606 ft | 242 kts | 352° |
| 2026-04-26 13:38 | 53.73359 | 10.34180 | 5245 ft | 232 kts | 322° |
| 2026-04-26 13:38 | 53.74595 | 10.32482 | 4909 ft | 225 kts | 319° |
| 2026-04-26 13:38 | 53.75766 | 10.30822 | 4636 ft | 215 kts | 317° |
| 2026-04-26 13:38 | 53.76576 | 10.28791 | 4284 ft | 207 kts | 281° |
| 2026-04-26 13:39 | 53.76481 | 10.26499 | 4103 ft | 191 kts | 247° |
| 2026-04-26 13:39 | 53.75753 | 10.24710 | 3880 ft | 182 kts | 230° |
| 2026-04-26 13:39 | 53.74936 | 10.23051 | 3609 ft | 184 kts | 231° |
| 2026-04-26 13:39 | 53.74117 | 10.21383 | 3357 ft | 185 kts | 231° |
| 2026-04-26 13:40 | 53.73302 | 10.19717 | 3112 ft | 186 kts | 231° |
| 2026-04-26 13:40 | 53.72478 | 10.18034 | 2860 ft | 186 kts | 232° |
| 2026-04-26 13:40 | 53.71658 | 10.16355 | 2608 ft | 184 kts | 232° |
| 2026-04-26 13:40 | 53.70842 | 10.14691 | 2327 ft | 185 kts | 231° |
| 2026-04-26 13:41 | 53.70026 | 10.13032 | 2082 ft | 182 kts | 232° |
| 2026-04-26 13:41 | 53.69230 | 10.11409 | 1838 ft | 179 kts | 232° |
| 2026-04-26 13:41 | 53.68434 | 10.09790 | 1574 ft | 179 kts | 232° |
| 2026-04-26 13:41 | 53.67652 | 10.08190 | 1281 ft | 171 kts | 232° |
| 2026-04-26 13:42 | 53.66931 | 10.06731 | 1092 ft | 158 kts | 231° |
| 2026-04-26 13:42 | 53.66260 | 10.05367 | 921 ft | 144 kts | 232° |
| 2026-04-26 13:42 | 53.65636 | 10.04090 | 700 ft | 139 kts | 232° |
| 2026-04-26 13:42 | 53.65022 | 10.02836 | 519 ft | 138 kts | 233° |
| 2026-04-26 13:43 | 53.64410 | 10.01598 | 330 ft | 138 kts | 232° |
| 2026-04-26 13:43 | 53.63805 | 10.00376 | 147 ft | 137 kts | 232° |
| 2026-04-26 13:43 | 53.63209 | 9.99172 | 49 ft | 124 kts | 232° |
| 2026-04-26 13:43 | 53.62751 | 9.98244 | 43 ft | 78 kts | 230° |
| 2026-04-26 13:44 | 53.62551 | 9.97844 | 41 ft | 14 kts | 229° |
| 2026-04-26 13:44 | 53.62466 | 9.97787 | 41 ft | 15 kts | 160° |
| 2026-04-26 13:44 | 53.62426 | 9.97922 | 46 ft | 13 kts | 83° |
| 2026-04-26 13:44 | 53.62455 | 9.98073 | 46 ft | 15 kts | 62° |
| 2026-04-26 13:45 | 53.62527 | 9.98224 | 47 ft | 18 kts | 48° |
| 2026-04-26 13:45 | 53.62614 | 9.98398 | 47 ft | 21 kts | 51° |
| 2026-04-26 13:45 | 53.62712 | 9.98599 | 47 ft | 24 kts | 50° |
| 2026-04-26 13:45 | 53.62823 | 9.98824 | 47 ft | 26 kts | 51° |
| 2026-04-26 13:46 | 53.62946 | 9.99070 | 47 ft | 29 kts | 50° |
| 2026-04-26 13:46 | 53.63054 | 9.99293 | 47 ft | 22 kts | 54° |
| 2026-04-26 13:46 | 53.63145 | 9.99519 | 46 ft | 25 kts | 55° |
| 2026-04-26 13:46 | 53.63264 | 9.99741 | 48 ft | 26 kts | 45° |
| 2026-04-26 13:47 | 53.63375 | 9.99954 | 48 ft | 21 kts | 50° |
| 2026-04-26 13:47 | 53.63427 | 10.00118 | 48 ft | 14 kts | 108° |
| 2026-04-26 13:47 | 53.63338 | 10.00165 | 48 ft | 14 kts | 175° |
| 2026-04-26 13:47 | 53.63234 | 10.00176 | 46 ft | 12 kts | 175° |
| 2026-04-26 13:48 | 53.63166 | 10.00189 | 46 ft | 10 kts | 159° |
| 2026-04-26 13:48 | 53.63164 | 10.00287 | 48 ft | 9 kts | 85° |
| 2026-04-26 13:48 | 53.63167 | 10.00356 | 48 ft | 3 kts | 86° |
| 2026-04-26 13:48 | 53.63167 | 10.00364 | 48 ft | 0 kts | 87° |